Terminal Aerodrome Forecast
Issued by NWS

Home | Current Version | Previous Version | Graphics & Text | Print | Product List | Glossary On
Versions: 1 2 3 4 5 6 7 8 9 10 11 12 13 14 15 16 17 18
000
FTUS43 KBIS 130700 AAA
TAFMOT
TAF AMD
KMOT 130739Z 1308/1406 34018G24KT P6SM -SN SCT015 BKN030
      TEMPO 1308/1312 BKN015 OVC030
     FM131500 32018KT P6SM BKN040
     FM140100 33012KT P6SM OVC035=

USA.gov is the U.S. government's official web portal to all federal, state and local government web resources and services.